createdAt,value
2023-02-05T00:02:02.080Z,85.36635
2023-02-05T00:07:03.671Z,83.72708
2023-02-05T00:12:05.137Z,88.77079
2023-02-05T00:17:06.716Z,87.13435
2023-02-05T00:22:08.490Z,88.69462
2023-02-05T00:27:09.986Z,88.89399
2023-02-05T00:32:11.521Z,88.50906
2023-02-05T00:37:13.049Z,85.76304
2023-02-05T00:42:14.833Z,87.48061
2023-02-05T00:47:17.054Z,86.62251
2023-02-05T00:52:19.271Z,90.90178
2023-02-05T00:57:21.091Z,89.58612
2023-02-05T01:02:23.046Z,91.35889
2023-02-05T01:07:24.964Z,91.77666
2023-02-05T01:12:26.968Z,90.13377
2023-02-05T01:17:28.766Z,91.33691
2023-02-05T01:22:30.902Z,90.33908
2023-02-05T01:27:32.754Z,92.38662
2023-02-05T01:32:34.794Z,90.60793
2023-02-05T01:37:36.497Z,88.42311
2023-02-05T01:42:38.266Z,91.13416
2023-02-05T01:47:40.184Z,87.98393
2023-02-05T01:52:41.971Z,89.90009
2023-02-05T01:57:43.774Z,88.481
2023-02-05T02:02:45.966Z,90.76329
2023-02-05T02:07:47.756Z,92.32385
2023-02-05T02:12:49.786Z,88.52194
2023-02-05T02:17:51.564Z,88.63956
2023-02-05T02:22:53.649Z,86.48448
2023-02-05T02:27:55.474Z,89.98928
2023-02-05T02:32:57.651Z,89.91005
2023-02-05T02:37:59.379Z,88.69218
2023-02-05T02:43:01.069Z,87.71786
2023-02-05T02:48:02.846Z,89.5215
2023-02-05T02:53:05.500Z,89.5311
2023-02-05T02:58:07.026Z,95.91437
2023-02-05T03:03:08.750Z,98.23014
2023-02-05T03:08:10.234Z,97.36535
2023-02-05T03:13:11.879Z,99.60744
2023-02-05T03:18:13.585Z,100
2023-02-05T03:23:15.217Z,97.10501
2023-02-05T03:28:17.051Z,98.19036
2023-02-05T03:33:19.800Z,99.28685
2023-02-05T03:38:21.462Z,96.8838
2023-02-05T03:43:22.937Z,100
2023-02-05T03:48:24.750Z,100
2023-02-05T03:53:26.944Z,100
2023-02-05T03:58:28.813Z,99.37776
2023-02-05T04:03:30.737Z,99.0252
2023-02-05T04:08:32.648Z,99.17462
2023-02-05T04:13:34.437Z,96.69703
2023-02-05T04:18:36.698Z,95.2122
2023-02-05T04:23:39.216Z,93.45235
2023-02-05T04:28:40.960Z,100
2023-02-05T04:33:42.897Z,97.01757
2023-02-05T04:38:44.730Z,100
2023-02-05T04:43:46.693Z,96.60814
2023-02-05T04:48:48.761Z,91.76923
2023-02-05T04:53:50.887Z,92.58988
2023-02-05T04:58:52.810Z,92.86499
2023-02-05T05:03:54.605Z,89.65427
2023-02-05T05:08:56.388Z,85.06658
2023-02-05T05:13:58.162Z,81.81872
2023-02-05T05:19:00.065Z,86.05439
2023-02-05T05:24:01.906Z,86.51154
2023-02-05T05:29:03.569Z,83.4141
2023-02-05T05:34:05.380Z,77.24549
2023-02-05T05:39:06.941Z,75.4373
2023-02-05T05:44:08.397Z,73.4715
2023-02-05T05:49:09.912Z,73.22286
2023-02-05T05:54:11.669Z,71.85603
2023-02-05T05:59:13.223Z,70.1416
2023-02-05T06:04:14.973Z,66.3766
2023-02-05T06:09:16.459Z,65.8747
2023-02-05T06:14:17.888Z,62.39414
2023-02-05T06:19:19.810Z,62.96584
2023-02-05T06:24:21.445Z,62.03631
2023-02-05T06:29:22.898Z,63.61962
2023-02-05T06:34:25.163Z,60.28659
2023-02-05T06:39:26.614Z,62.75391
2023-02-05T06:44:28.098Z,59.27129
2023-02-05T06:49:29.576Z,55.09668
2023-02-05T06:54:31.185Z,58.21053
2023-02-05T06:59:32.741Z,56.04243
2023-02-05T07:04:34.289Z,58.01738
2023-02-05T07:09:35.751Z,57.4202
2023-02-05T07:14:37.457Z,53.91977
2023-02-05T07:19:39.034Z,51.62115
2023-02-05T07:24:40.672Z,54.10187
2023-02-05T07:29:42.493Z,46.69145
2023-02-05T07:34:44.203Z,47.42568
2023-02-05T07:39:45.657Z,45.41004
2023-02-05T07:44:47.147Z,48.0508
2023-02-05T07:49:48.728Z,48.0342
2023-02-05T07:54:50.345Z,50.26635
2023-02-05T07:59:51.793Z,50.53171
2023-02-05T08:04:53.677Z,45.36699
2023-02-05T08:09:55.180Z,43.76423
2023-02-05T08:14:56.751Z,43.30065
2023-02-05T08:19:58.416Z,40.9401
2023-02-05T08:25:00.133Z,39.88381
2023-02-05T08:30:01.728Z,38.04002
2023-02-05T08:35:09.318Z,40.42245
2023-02-05T08:40:11.117Z,38.42247
2023-02-05T08:45:12.922Z,38.33078
2023-02-05T08:50:14.482Z,37.396
2023-02-05T08:55:16.188Z,36.85528
2023-02-05T09:00:17.973Z,34.44567
2023-02-05T09:05:19.865Z,34.39523
2023-02-05T09:10:21.670Z,36.8293
2023-02-05T09:15:23.461Z,35.21824
2023-02-05T09:20:25.675Z,34.84375
2023-02-05T09:25:27.879Z,38.05489
2023-02-05T09:30:29.681Z,37.74707
2023-02-05T09:35:31.642Z,34.95544
2023-02-05T09:40:33.529Z,36.84731
2023-02-05T09:45:38.169Z,33.9716
2023-02-05T09:50:40.700Z,31.12211
2023-02-05T09:55:42.763Z,38.25528
2023-02-05T10:00:44.810Z,35.15454
2023-02-05T10:05:46.915Z,31.9892
2023-02-05T10:10:49.121Z,28.96575
2023-02-05T10:15:50.979Z,30.60266
2023-02-05T10:20:52.883Z,34.53124
2023-02-05T10:25:54.884Z,34.02076
2023-02-05T10:30:56.875Z,35.36271
2023-02-05T10:35:59.067Z,33.66576
2023-02-05T10:41:00.987Z,29.58027
2023-02-05T10:46:02.734Z,32.23782
2023-02-05T10:51:04.414Z,32.58011
2023-02-05T10:56:06.094Z,35.71284
2023-02-05T11:01:07.797Z,35.98456
2023-02-05T11:06:09.374Z,35.24012
2023-02-05T11:11:11.367Z,30.84782
2023-02-05T11:16:13.087Z,32.03114
2023-02-05T11:21:14.836Z,32.00359
2023-02-05T11:26:16.688Z,31.91014
2023-02-05T11:31:18.635Z,33.79352
2023-02-05T11:36:20.570Z,33.06461
2023-02-05T11:41:22.229Z,34.73556
2023-02-05T11:46:23.939Z,35.31928
2023-02-05T11:51:25.851Z,32.39631
2023-02-05T11:56:27.693Z,32.43629
2023-02-05T12:01:29.476Z,33.18293
2023-02-05T12:06:31.398Z,32.19725
2023-02-05T12:11:33.196Z,28.96901
2023-02-05T12:16:35.163Z,31.319
2023-02-05T12:21:36.965Z,31.66977
2023-02-05T12:26:38.933Z,32.03899
2023-02-05T12:31:40.783Z,32.43584
2023-02-05T12:36:43.132Z,31.5043
2023-02-05T12:41:44.699Z,30.62281
2023-02-05T12:46:46.466Z,30.49217
2023-02-05T12:51:48.250Z,32.57876
2023-02-05T12:56:50.250Z,33.09598
2023-02-05T13:01:52.248Z,29.32687
2023-02-05T13:06:54.276Z,30.29725
2023-02-05T13:11:56.116Z,30.84032
2023-02-05T13:16:57.974Z,29.91252
2023-02-05T13:21:59.988Z,30.22894
2023-02-05T13:27:02.376Z,32.13482
2023-02-05T13:32:14.755Z,31.78476
2023-02-05T13:37:17.643Z,31.5648
2023-02-05T13:42:19.110Z,31.97774
2023-02-05T13:47:20.775Z,31.74672
2023-02-05T13:52:22.238Z,30.67525
2023-02-05T13:57:24.250Z,31.46285
2023-02-05T14:02:25.908Z,33.7689
2023-02-05T14:07:27.615Z,33.41565
2023-02-05T14:12:29.076Z,33.82198
2023-02-05T14:17:30.760Z,34.15297
2023-02-05T14:22:32.353Z,32.41529
2023-02-05T14:27:34.344Z,32.29231
2023-02-05T14:32:35.817Z,32.1048
2023-02-05T14:37:37.281Z,34.20001
2023-02-05T14:42:38.873Z,33.18883
2023-02-05T14:47:40.579Z,31.68265
2023-02-05T14:52:42.300Z,32.99577
2023-02-05T14:57:44.027Z,33.12667
2023-02-05T15:02:46.050Z,33.83426
2023-02-05T15:07:47.560Z,33.62326
2023-02-05T15:12:49.089Z,33.6529
2023-02-05T15:17:50.896Z,35.33017
2023-02-05T15:22:52.491Z,36.08852
2023-02-05T15:27:54.613Z,37.02207
2023-02-05T15:32:56.211Z,36.75601
2023-02-05T15:37:57.917Z,38.1369
2023-02-05T15:42:59.396Z,39.41689
2023-02-05T15:48:01.148Z,39.57281
2023-02-05T15:53:02.593Z,39.49206
2023-02-05T15:58:04.235Z,40.28366
2023-02-05T16:03:05.991Z,40.50975
2023-02-05T16:08:07.705Z,41.27024
2023-02-05T16:13:09.274Z,42.86157
2023-02-05T16:18:11.135Z,43.96956
2023-02-05T16:23:12.562Z,43.72362
2023-02-05T16:28:14.460Z,45.86325
2023-02-05T16:33:16.031Z,47.76375
2023-02-05T16:38:17.953Z,51.46665
2023-02-05T16:43:19.687Z,51.44827
2023-02-05T16:48:21.476Z,51.23794
2023-02-05T16:53:26.135Z,53.52308
2023-02-05T16:58:28.569Z,54.26702
2023-02-05T17:03:30.158Z,54.34905
2023-02-05T17:08:32.025Z,54.50286
2023-02-05T17:13:33.518Z,56.81662
2023-02-05T17:18:34.983Z,57.98167
2023-02-05T17:23:36.595Z,58.52948
2023-02-05T17:28:38.565Z,59.69746
2023-02-05T17:33:40.391Z,62.854
2023-02-05T17:38:41.969Z,63.08133
2023-02-05T17:43:43.425Z,61.77163
2023-02-05T17:48:45.144Z,64.37506
2023-02-05T17:53:46.964Z,64.05279
2023-02-05T17:58:49.126Z,64.68445
2023-02-05T18:03:50.644Z,65.3651
2023-02-05T18:08:52.474Z,64.47593
2023-02-05T18:13:54.205Z,67.6767
2023-02-05T18:18:56.100Z,65.62787
2023-02-05T18:23:57.705Z,65.52478
2023-02-05T18:28:59.658Z,65.6951
2023-02-05T18:34:01.672Z,64.45716
2023-02-05T18:39:03.649Z,67.11364
2023-02-05T18:44:05.080Z,65.73576
2023-02-05T18:49:06.587Z,65.0112
2023-02-05T18:54:08.226Z,66.28023
2023-02-05T18:59:10.614Z,68.51942
2023-02-05T19:04:12.249Z,67.46302
2023-02-05T19:09:14.051Z,66.87178
2023-02-05T19:14:15.795Z,68.86106
2023-02-05T19:19:17.571Z,71.87394
2023-02-05T19:24:19.298Z,71.90731
2023-02-05T19:29:21.601Z,70.63728
2023-02-05T19:34:23.557Z,70.48379
2023-02-05T19:39:25.568Z,73.80656
2023-02-05T19:44:27.333Z,74.46307
2023-02-05T19:49:28.968Z,76.39324
2023-02-05T19:54:32.564Z,76.86787
2023-02-05T19:59:34.536Z,74.80436
2023-02-05T20:04:36.645Z,76.53644
2023-02-05T20:09:38.531Z,78.53283
2023-02-05T20:14:40.502Z,77.89664
2023-02-05T20:19:42.397Z,74.55681
2023-02-05T20:24:44.181Z,77.10114
2023-02-05T20:29:46.507Z,72.66585
2023-02-05T20:34:48.291Z,75.28204
2023-02-05T20:39:49.768Z,74.927
2023-02-05T20:44:51.579Z,72.42195
2023-02-05T20:49:53.456Z,73.6227
2023-02-05T20:54:55.250Z,75.23318
2023-02-05T20:59:57.204Z,75.89978
2023-02-05T21:04:58.958Z,75.60236
2023-02-05T21:10:02.213Z,75.43563
2023-02-05T21:15:04.343Z,74.09043
2023-02-05T21:20:05.834Z,73.19726
2023-02-05T21:25:07.714Z,73.51489
2023-02-05T21:30:09.345Z,74.81907
2023-02-05T21:35:11.133Z,77.20147
2023-02-05T21:40:12.602Z,74.96215
2023-02-05T21:45:14.178Z,78.79547
2023-02-05T21:50:15.659Z,77.16017
2023-02-05T21:55:18.036Z,74.76815
2023-02-05T22:00:19.688Z,78.007
2023-02-05T22:05:21.261Z,77.61166
2023-02-05T22:10:22.947Z,78.89772
2023-02-05T22:15:24.754Z,77.47193
2023-02-05T22:20:26.160Z,78.11275
2023-02-05T22:25:28.203Z,80.44219
2023-02-05T22:30:30.395Z,82.40116
2023-02-05T22:35:32.246Z,79.14994
2023-02-05T22:40:34.141Z,80.46322
2023-02-05T22:45:36.225Z,78.39866
2023-02-05T22:50:41.511Z,78.41611
2023-02-05T22:55:43.456Z,79.47412
2023-02-05T23:00:45.329Z,81.68111
2023-02-05T23:05:47.069Z,84.25884
2023-02-05T23:10:48.850Z,82.17641
2023-02-05T23:15:50.618Z,82.55604
2023-02-05T23:20:52.291Z,86.0006
2023-02-05T23:25:54.156Z,84.31963
2023-02-05T23:30:56.271Z,78.72783
2023-02-05T23:35:58.039Z,81.57657
2023-02-05T23:40:59.849Z,84.27494
2023-02-05T23:46:01.740Z,86.37978
2023-02-05T23:51:03.362Z,88.50262
2023-02-05T23:56:05.292Z,87.85074
